createdAt,value
2023-04-29T00:00:53.472Z,64.38
2023-04-29T00:03:20.305Z,55.00
2023-04-29T00:05:47.273Z,65.47
2023-04-29T00:08:14.978Z,64.80
2023-04-29T00:10:41.725Z,61.63
2023-04-29T00:13:08.381Z,61.72
2023-04-29T00:15:34.977Z,54.60
2023-04-29T00:18:01.708Z,57.63
2023-04-29T00:20:28.360Z,56.65
2023-04-29T00:22:54.999Z,61.13
2023-04-29T00:25:21.663Z,56.95
2023-04-29T00:27:48.280Z,65.68
2023-04-29T00:30:15.002Z,54.17
2023-04-29T00:32:41.735Z,60.78
2023-04-29T00:35:08.968Z,60.17
2023-04-29T00:37:35.542Z,55.55
2023-04-29T00:40:02.518Z,44.60
2023-04-29T00:42:29.485Z,52.70
2023-04-29T00:44:56.350Z,50.63
2023-04-29T00:47:23.300Z,54.00
2023-04-29T00:49:50.401Z,55.92
2023-04-29T00:52:17.766Z,51.05
2023-04-29T00:54:44.556Z,61.03
2023-04-29T00:57:11.269Z,58.72
2023-04-29T00:59:37.933Z,52.50
2023-04-29T01:02:04.894Z,56.33
2023-04-29T01:04:31.702Z,61.10
2023-04-29T01:07:13.423Z,58.20
2023-04-29T01:10:15.738Z,54.17
2023-04-29T01:12:47.173Z,66.15
2023-04-29T01:15:39.915Z,54.45
2023-04-29T01:18:12.872Z,51.83
2023-04-29T01:20:39.991Z,48.90
2023-04-29T01:23:06.676Z,52.75
2023-04-29T01:25:33.510Z,52.30
2023-04-29T01:28:50.802Z,47.53
2023-04-29T01:31:41.486Z,46.55
2023-04-29T01:34:14.914Z,49.95
2023-04-29T01:37:14.048Z,46.50
2023-04-29T01:40:07.487Z,43.17
2023-04-29T01:43:03.272Z,46.28
2023-04-29T01:45:34.257Z,50.45
2023-04-29T01:48:01.888Z,49.88
2023-04-29T01:50:30.462Z,45.63
2023-04-29T01:53:04.452Z,49.22
2023-04-29T01:55:31.334Z,48.63
2023-04-29T01:58:14.245Z,51.83
2023-04-29T02:00:55.861Z,49.05
2023-04-29T02:03:23.042Z,54.42
2023-04-29T02:05:54.033Z,53.38
2023-04-29T02:08:20.706Z,55.58
2023-04-29T02:10:57.713Z,57.13
2023-04-29T02:13:37.050Z,49.53
2023-04-29T02:16:11.225Z,47.70
2023-04-29T02:18:42.475Z,56.40
2023-04-29T02:21:09.473Z,52.17
2023-04-29T02:23:36.614Z,56.80
2023-04-29T02:26:06.982Z,48.47
2023-04-29T02:28:35.046Z,52.78
2023-04-29T02:31:02.143Z,58.97
2023-04-29T02:33:28.854Z,51.88
2023-04-29T02:35:55.775Z,46.40
2023-04-29T02:38:22.764Z,48.47
2023-04-29T02:40:50.353Z,43.70
2023-04-29T02:43:17.312Z,57.65
2023-04-29T02:45:45.418Z,48.33
2023-04-29T02:48:12.292Z,48.08
2023-04-29T02:50:39.710Z,52.70
2023-04-29T02:53:07.188Z,50.17
2023-04-29T02:55:34.217Z,47.53
2023-04-29T02:58:06.661Z,46.47
2023-04-29T03:00:33.332Z,48.70
2023-04-29T03:03:00.399Z,48.53
2023-04-29T03:05:27.323Z,43.72
2023-04-29T03:07:54.651Z,47.92
2023-04-29T03:10:21.779Z,44.00
2023-04-29T03:12:48.473Z,46.60
2023-04-29T03:15:15.744Z,44.55
2023-04-29T03:17:43.143Z,43.20
2023-04-29T03:20:10.949Z,48.13
2023-04-29T03:22:37.677Z,53.30
2023-04-29T03:25:05.142Z,47.70
2023-04-29T03:27:32.183Z,42.42
2023-04-29T03:29:59.172Z,40.83
2023-04-29T03:32:26.603Z,44.30
2023-04-29T03:34:53.266Z,39.35
2023-04-29T03:37:46.118Z,38.50
2023-04-29T03:40:26.931Z,41.97
2023-04-29T03:42:53.548Z,44.70
2023-04-29T03:45:20.491Z,44.03
2023-04-29T03:47:47.211Z,42.20
2023-04-29T03:50:14.118Z,47.40
2023-04-29T03:52:41.372Z,39.15
2023-04-29T03:55:15.919Z,41.95
2023-04-29T03:57:44.022Z,39.95
2023-04-29T04:00:12.302Z,38.00
2023-04-29T04:02:48.045Z,42.25
2023-04-29T04:05:15.480Z,41.17
2023-04-29T04:07:48.189Z,46.63
2023-04-29T04:10:45.953Z,43.17
2023-04-29T04:13:27.248Z,36.70
2023-04-29T04:15:53.947Z,41.30
2023-04-29T04:18:20.767Z,51.03
2023-04-29T04:20:47.707Z,40.60
2023-04-29T04:23:14.717Z,38.67
2023-04-29T04:25:47.057Z,44.70
2023-04-29T04:28:40.299Z,42.28
2023-04-29T04:31:14.625Z,40.97
2023-04-29T04:33:41.888Z,42.58
2023-04-29T04:36:08.963Z,38.75
2023-04-29T04:38:36.024Z,47.33
2023-04-29T04:41:08.194Z,43.13
2023-04-29T04:43:37.113Z,45.42
2023-04-29T04:46:15.127Z,47.80
2023-04-29T04:48:52.356Z,48.67
2023-04-29T04:51:20.825Z,43.38
2023-04-29T04:53:47.641Z,46.63
2023-04-29T04:56:22.931Z,47.80
2023-04-29T04:58:50.291Z,45.95
2023-04-29T05:01:16.974Z,51.08
2023-04-29T05:03:44.065Z,46.15
2023-04-29T05:06:11.084Z,43.55
2023-04-29T05:08:40.357Z,41.35
2023-04-29T05:11:18.707Z,50.20
2023-04-29T05:13:51.737Z,48.15
2023-04-29T05:16:18.710Z,39.40
2023-04-29T05:18:47.320Z,42.95
2023-04-29T05:21:17.586Z,39.47
2023-04-29T05:23:44.924Z,41.55
2023-04-29T05:26:12.251Z,40.72
2023-04-29T05:28:39.080Z,40.78
2023-04-29T05:31:07.459Z,36.10
2023-04-29T05:33:34.219Z,33.83
2023-04-29T05:36:01.308Z,39.95
2023-04-29T05:38:29.239Z,32.10
2023-04-29T05:41:07.728Z,33.65
2023-04-29T05:43:45.271Z,36.88
2023-04-29T05:46:14.235Z,29.98
2023-04-29T05:48:40.874Z,36.72
2023-04-29T05:51:07.597Z,39.13
2023-04-29T05:53:35.836Z,32.88
2023-04-29T05:56:06.557Z,34.25
2023-04-29T05:58:33.282Z,34.47
2023-04-29T06:01:00.273Z,33.92
2023-04-29T06:03:28.043Z,31.55
2023-04-29T06:06:13.957Z,32.90
2023-04-29T06:08:53.707Z,31.27
2023-04-29T06:11:24.860Z,31.20
2023-04-29T06:13:51.529Z,35.70
2023-04-29T06:16:18.418Z,30.50
2023-04-29T06:18:45.157Z,30.13
2023-04-29T06:21:13.911Z,28.50
2023-04-29T06:23:40.622Z,29.63
2023-04-29T06:26:15.181Z,29.33
2023-04-29T06:28:42.177Z,27.40
2023-04-29T06:31:09.416Z,33.75
2023-04-29T06:33:36.257Z,24.40
2023-04-29T06:36:02.929Z,26.90
2023-04-29T06:38:44.693Z,24.80
2023-04-29T06:41:30.620Z,28.30
2023-04-29T06:44:12.074Z,23.20
2023-04-29T06:47:11.030Z,23.30
2023-04-29T06:49:58.030Z,22.10
2023-04-29T06:52:24.957Z,20.58
2023-04-29T06:54:51.661Z,22.42
2023-04-29T06:57:19.049Z,24.80
2023-04-29T06:59:46.295Z,23.58
2023-04-29T07:02:13.626Z,22.35
2023-04-29T07:04:40.257Z,24.98
2023-04-29T07:07:07.175Z,20.98
2023-04-29T07:09:34.465Z,23.33
2023-04-29T07:12:02.661Z,19.50
2023-04-29T07:14:29.363Z,21.77
2023-04-29T07:16:56.093Z,19.40
2023-04-29T07:19:23.129Z,19.83
2023-04-29T07:21:49.812Z,18.30
2023-04-29T07:24:16.699Z,21.00
2023-04-29T07:26:45.737Z,18.35
2023-04-29T07:29:15.207Z,16.45
2023-04-29T07:31:42.334Z,17.50
2023-04-29T07:34:08.994Z,16.20
2023-04-29T07:36:35.657Z,17.25
2023-04-29T07:39:02.661Z,17.83
2023-04-29T07:41:29.405Z,18.25
2023-04-29T07:43:56.215Z,17.38
2023-04-29T07:46:23.488Z,17.75
2023-04-29T07:48:50.619Z,15.98
2023-04-29T07:51:17.264Z,22.35
2023-04-29T07:53:43.925Z,18.25
2023-04-29T07:56:10.752Z,14.45
2023-04-29T07:58:37.718Z,14.60
2023-04-29T08:01:11.934Z,15.50
2023-04-29T08:03:41.614Z,14.85
2023-04-29T08:06:10.065Z,16.02
2023-04-29T08:08:36.848Z,17.38
2023-04-29T08:11:03.618Z,11.75
2023-04-29T08:13:30.314Z,14.73
2023-04-29T08:15:57.008Z,11.32
2023-04-29T08:18:23.652Z,13.27
2023-04-29T08:20:50.385Z,14.85
2023-04-29T08:23:17.117Z,13.55
2023-04-29T08:25:44.085Z,15.38
2023-04-29T08:28:11.410Z,13.85
2023-04-29T08:30:40.127Z,13.50
2023-04-29T08:33:07.154Z,14.82
2023-04-29T08:35:34.043Z,13.38
2023-04-29T08:38:00.775Z,13.73
2023-04-29T08:40:28.252Z,13.02
2023-04-29T08:42:55.327Z,12.23
2023-04-29T08:45:23.236Z,12.55
2023-04-29T08:47:51.322Z,13.50
2023-04-29T08:50:18.544Z,14.48
2023-04-29T08:52:45.370Z,12.82
2023-04-29T08:55:11.950Z,13.38
2023-04-29T08:57:40.012Z,12.27
2023-04-29T09:00:10.944Z,11.05
2023-04-29T09:02:46.373Z,10.80
2023-04-29T09:05:13.214Z,15.18
2023-04-29T09:07:41.146Z,10.38
2023-04-29T09:10:08.391Z,14.10
2023-04-29T09:12:36.123Z,13.27
2023-04-29T09:15:03.478Z,13.70
2023-04-29T09:17:47.732Z,16.77
2023-04-29T09:20:20.172Z,10.05
2023-04-29T09:22:59.974Z,13.50
2023-04-29T09:25:27.390Z,11.77
2023-04-29T09:27:55.463Z,15.57
2023-04-29T09:30:23.133Z,9.20
2023-04-29T09:33:09.263Z,12.63
2023-04-29T09:35:36.354Z,12.02
2023-04-29T09:38:14.418Z,13.00
2023-04-29T09:40:57.735Z,15.50
2023-04-29T09:43:26.172Z,12.98
2023-04-29T09:45:52.820Z,10.65
2023-04-29T09:48:19.546Z,13.27
2023-04-29T09:51:01.588Z,11.20
2023-04-29T09:53:30.268Z,10.07
2023-04-29T09:56:01.971Z,9.55
2023-04-29T09:58:38.998Z,11.43
2023-04-29T10:01:06.698Z,11.40
2023-04-29T10:03:38.165Z,9.95
2023-04-29T10:06:07.206Z,9.07
2023-04-29T10:08:34.613Z,10.13
2023-04-29T10:11:03.479Z,10.25
2023-04-29T10:13:30.856Z,8.77
2023-04-29T10:16:11.104Z,8.00
2023-04-29T10:18:40.741Z,11.85
2023-04-29T10:21:09.582Z,6.70
2023-04-29T10:23:37.665Z,8.13
2023-04-29T10:26:05.709Z,10.32
2023-04-29T10:28:32.935Z,9.02
2023-04-29T10:31:05.490Z,10.48
2023-04-29T10:33:35.204Z,13.95
2023-04-29T10:36:03.273Z,10.23
2023-04-29T10:38:35.880Z,8.82
2023-04-29T10:41:04.458Z,9.00
2023-04-29T10:43:31.939Z,10.80
2023-04-29T10:46:34.157Z,12.73
2023-04-29T10:49:03.282Z,13.13
2023-04-29T10:51:34.830Z,11.38
2023-04-29T10:54:11.090Z,7.70
2023-04-29T10:56:49.372Z,7.95
2023-04-29T10:59:20.319Z,8.13
2023-04-29T11:01:53.093Z,10.30
2023-04-29T11:04:21.304Z,8.52
2023-04-29T11:06:59.074Z,10.25
2023-04-29T11:09:30.401Z,7.53
2023-04-29T11:12:01.623Z,11.63
2023-04-29T11:14:41.565Z,9.00
2023-04-29T11:17:14.822Z,7.65
2023-04-29T11:19:42.342Z,8.30
2023-04-29T11:22:18.192Z,6.10
2023-04-29T11:24:53.040Z,10.52
2023-04-29T11:27:22.910Z,10.20
2023-04-29T11:29:50.331Z,8.45
2023-04-29T11:32:21.492Z,8.13
2023-04-29T11:34:48.247Z,7.93
2023-04-29T11:37:25.899Z,8.70
2023-04-29T11:39:59.192Z,8.32
2023-04-29T11:42:25.812Z,7.57
2023-04-29T11:44:54.425Z,11.23
2023-04-29T11:47:22.051Z,8.40
2023-04-29T11:49:48.818Z,6.80
2023-04-29T11:52:16.461Z,6.82
2023-04-29T11:54:43.202Z,7.13
2023-04-29T11:57:10.903Z,6.00
2023-04-29T11:59:37.563Z,10.50
2023-04-29T12:02:04.174Z,6.35
2023-04-29T12:04:30.968Z,8.40
2023-04-29T12:06:58.841Z,8.73
2023-04-29T12:09:25.653Z,7.45
2023-04-29T12:11:52.888Z,8.35
2023-04-29T12:14:20.392Z,6.50
2023-04-29T12:16:47.165Z,9.98
2023-04-29T12:19:13.900Z,9.30
2023-04-29T12:21:49.011Z,7.32
2023-04-29T12:24:16.235Z,7.25
2023-04-29T12:26:45.508Z,7.20
2023-04-29T12:29:13.214Z,6.53
2023-04-29T12:31:39.962Z,7.78
2023-04-29T12:34:09.867Z,9.07
2023-04-29T12:36:37.737Z,5.88
2023-04-29T12:39:07.183Z,4.82
2023-04-29T12:41:37.751Z,6.28
2023-04-29T12:44:06.227Z,5.30
2023-04-29T12:46:41.252Z,6.20
2023-04-29T12:49:08.402Z,6.68
2023-04-29T12:51:36.642Z,4.68
2023-04-29T12:54:04.614Z,5.47
2023-04-29T12:56:31.862Z,5.72
2023-04-29T12:59:24.915Z,5.72
2023-04-29T13:01:51.515Z,5.83
2023-04-29T13:04:18.219Z,4.60
2023-04-29T13:06:45.008Z,5.60
2023-04-29T13:09:17.904Z,4.32
2023-04-29T13:11:46.104Z,5.10
2023-04-29T13:14:12.693Z,5.28
2023-04-29T13:16:39.368Z,3.25
2023-04-29T13:19:21.587Z,4.15
2023-04-29T13:21:53.260Z,3.33
2023-04-29T13:24:20.990Z,3.75
2023-04-29T13:26:50.184Z,4.10
2023-04-29T13:29:18.362Z,7.53
2023-04-29T13:31:45.076Z,4.50
2023-04-29T13:34:11.858Z,6.82
2023-04-29T13:36:38.670Z,4.85
2023-04-29T13:39:05.465Z,4.80
2023-04-29T13:41:34.997Z,3.95
2023-04-29T13:44:02.467Z,4.00
2023-04-29T13:46:31.472Z,4.75
2023-04-29T13:49:20.704Z,5.32
2023-04-29T13:52:30.615Z,4.00
2023-04-29T13:59:45.567Z,3.60
2023-04-29T14:02:24.895Z,6.55
2023-04-29T14:04:53.466Z,14.57
2023-04-29T14:07:20.933Z,6.72
2023-04-29T14:09:49.289Z,6.07
2023-04-29T14:12:15.898Z,4.53
2023-04-29T14:14:42.553Z,6.45
2023-04-29T14:17:09.424Z,4.20
2023-04-29T14:19:36.077Z,4.28
2023-04-29T14:22:02.749Z,4.65
2023-04-29T14:24:29.445Z,5.38
2023-04-29T14:26:56.148Z,3.65
2023-04-29T14:29:22.805Z,4.63
2023-04-29T14:31:49.520Z,3.17
2023-04-29T14:34:16.310Z,4.00
2023-04-29T14:36:44.299Z,4.47
2023-04-29T14:39:12.923Z,3.10
2023-04-29T14:41:39.807Z,2.10
2023-04-29T14:44:06.483Z,3.88
2023-04-29T14:46:33.102Z,6.10
2023-04-29T14:48:59.779Z,3.42
2023-04-29T14:51:27.377Z,2.10
2023-04-29T14:53:53.995Z,2.15
2023-04-29T14:56:20.629Z,16.38
2023-04-29T14:58:47.271Z,2.90
2023-04-29T15:01:13.894Z,6.25
2023-04-29T15:03:44.317Z,3.45
2023-04-29T15:06:12.054Z,3.70
2023-04-29T15:08:38.734Z,3.78
2023-04-29T15:11:05.556Z,5.70
2023-04-29T15:13:32.500Z,6.03
2023-04-29T15:15:59.347Z,2.28
2023-04-29T15:18:26.417Z,2.72
2023-04-29T15:20:53.808Z,2.72
2023-04-29T15:23:20.722Z,4.38
2023-04-29T15:25:47.459Z,5.25
2023-04-29T15:28:14.172Z,4.03
2023-04-29T15:30:40.912Z,5.97
2023-04-29T15:33:07.691Z,5.78
2023-04-29T15:35:34.635Z,4.60
2023-04-29T15:38:01.266Z,6.55
2023-04-29T15:40:27.915Z,7.10
2023-04-29T15:42:54.667Z,5.50
2023-04-29T15:45:21.350Z,7.88
2023-04-29T15:47:48.020Z,6.53
2023-04-29T15:50:14.649Z,5.72
2023-04-29T15:52:41.308Z,5.68
2023-04-29T15:55:08.165Z,5.35
2023-04-29T15:57:40.970Z,5.40
2023-04-29T16:00:08.765Z,6.57
2023-04-29T16:02:35.604Z,5.28
2023-04-29T16:05:02.329Z,6.53
2023-04-29T16:07:29.045Z,5.95
2023-04-29T16:09:55.937Z,6.00
2023-04-29T16:12:22.762Z,7.85
2023-04-29T16:14:50.203Z,7.50
2023-04-29T16:17:16.939Z,7.57
2023-04-29T16:19:43.654Z,6.22
2023-04-29T16:22:10.440Z,6.30
2023-04-29T16:24:37.053Z,4.32
2023-04-29T16:27:04.153Z,4.00
2023-04-29T16:29:30.717Z,5.50
2023-04-29T16:31:57.450Z,6.57
2023-04-29T16:34:24.259Z,6.25
2023-04-29T16:36:51.273Z,5.40
2023-04-29T16:39:17.862Z,5.88
2023-04-29T16:41:44.525Z,4.32
2023-04-29T16:44:11.849Z,8.52
2023-04-29T16:46:38.736Z,5.28
2023-04-29T16:49:05.955Z,4.55
2023-04-29T16:51:33.675Z,5.75
2023-04-29T16:54:00.562Z,5.85
2023-04-29T16:56:27.610Z,6.97
2023-04-29T16:58:54.405Z,4.30
2023-04-29T17:01:21.348Z,5.72
2023-04-29T17:03:48.250Z,7.70
2023-04-29T17:06:15.571Z,5.68
2023-04-29T17:08:43.083Z,5.80
2023-04-29T17:11:10.395Z,6.00
2023-04-29T17:13:37.029Z,7.25
2023-04-29T17:16:03.989Z,6.22
2023-04-29T17:18:30.715Z,6.75
2023-04-29T17:20:57.378Z,7.00
2023-04-29T17:23:24.078Z,5.60
2023-04-29T17:25:50.778Z,6.68
2023-04-29T17:28:17.478Z,8.43
2023-04-29T17:30:44.169Z,8.45
2023-04-29T17:33:12.564Z,7.88
2023-04-29T17:35:39.186Z,5.93
2023-04-29T17:38:05.815Z,7.75
2023-04-29T17:40:32.416Z,7.20
2023-04-29T17:42:59.231Z,7.03
2023-04-29T17:45:26.166Z,5.63
2023-04-29T17:47:53.065Z,5.90
2023-04-29T17:50:19.672Z,5.72
2023-04-29T17:52:46.537Z,4.57
2023-04-29T17:55:13.149Z,6.72
2023-04-29T17:57:40.862Z,5.18
2023-04-29T18:00:08.468Z,4.88
2023-04-29T18:02:35.184Z,7.65
2023-04-29T18:05:03.356Z,6.93
2023-04-29T18:07:30.119Z,5.20
2023-04-29T18:09:57.331Z,5.60
2023-04-29T18:12:24.921Z,4.95
2023-04-29T18:14:52.028Z,5.75
2023-04-29T18:17:19.386Z,4.82
2023-04-29T18:19:52.350Z,3.60
2023-04-29T18:22:19.307Z,6.90
2023-04-29T18:24:48.378Z,4.70
2023-04-29T18:27:15.058Z,5.10
2023-04-29T18:29:41.728Z,8.65
2023-04-29T18:32:08.463Z,6.38
2023-04-29T18:34:35.180Z,5.53
2023-04-29T18:37:01.959Z,5.35
2023-04-29T18:39:28.686Z,5.80
2023-04-29T18:41:55.982Z,7.40
2023-04-29T18:44:22.744Z,7.22
2023-04-29T18:46:49.406Z,5.63
2023-04-29T18:49:16.877Z,5.78
2023-04-29T18:51:46.848Z,5.32
2023-04-29T18:54:15.239Z,5.75
2023-04-29T18:56:44.031Z,5.55
2023-04-29T18:59:12.797Z,6.93
2023-04-29T19:01:39.503Z,9.88
2023-04-29T19:04:08.657Z,10.52
2023-04-29T19:06:36.744Z,6.63
2023-04-29T19:09:03.905Z,8.20
2023-04-29T19:11:30.526Z,4.82
2023-04-29T19:13:57.566Z,8.40
2023-04-29T19:16:24.584Z,4.78
2023-04-29T19:18:51.231Z,9.05
2023-04-29T19:21:18.299Z,6.63
2023-04-29T19:23:44.898Z,7.60
2023-04-29T19:26:11.624Z,5.55
2023-04-29T19:28:38.388Z,4.72
2023-04-29T19:31:05.257Z,6.40
2023-04-29T19:33:32.006Z,4.13
2023-04-29T19:35:58.636Z,4.00
2023-04-29T19:38:25.770Z,8.45
2023-04-29T19:40:55.621Z,4.70
2023-04-29T19:43:22.981Z,5.05
2023-04-29T19:45:49.664Z,6.25
2023-04-29T19:48:16.409Z,4.78
2023-04-29T19:50:43.407Z,5.32
2023-04-29T19:53:11.192Z,4.30
2023-04-29T19:55:39.392Z,6.63
2023-04-29T19:58:06.495Z,6.28
2023-04-29T20:00:33.673Z,8.80
2023-04-29T20:03:00.531Z,6.00
2023-04-29T20:05:28.446Z,7.40
2023-04-29T20:07:55.479Z,7.53
2023-04-29T20:10:22.388Z,5.78
2023-04-29T20:12:49.454Z,5.55
2023-04-29T20:15:16.443Z,6.65
2023-04-29T20:17:43.239Z,4.90
2023-04-29T20:20:10.551Z,6.63
2023-04-29T20:22:37.229Z,4.90
2023-04-29T20:25:04.442Z,6.28
2023-04-29T20:27:31.131Z,4.25
2023-04-29T20:29:57.805Z,5.90
2023-04-29T20:32:24.671Z,6.20
2023-04-29T20:34:51.888Z,5.20
2023-04-29T20:37:19.860Z,5.53
2023-04-29T20:39:47.272Z,7.88
2023-04-29T20:42:13.956Z,5.18
2023-04-29T20:44:40.949Z,10.05
2023-04-29T20:47:07.835Z,6.65
2023-04-29T20:49:34.511Z,5.05
2023-04-29T20:52:01.323Z,4.22
2023-04-29T20:54:27.961Z,9.85
2023-04-29T20:56:54.650Z,7.18
2023-04-29T20:59:21.413Z,7.50
2023-04-29T21:01:48.145Z,6.65
2023-04-29T21:04:15.256Z,7.40
2023-04-29T21:06:42.053Z,7.10
2023-04-29T21:09:11.471Z,7.97
2023-04-29T21:11:38.391Z,6.18
2023-04-29T21:14:05.023Z,6.40
2023-04-29T21:16:31.742Z,6.95
2023-04-29T21:18:58.475Z,7.13
2023-04-29T21:21:26.122Z,8.48
2023-04-29T21:23:52.896Z,6.03
2023-04-29T21:26:19.549Z,6.93
2023-04-29T21:28:46.409Z,6.95
2023-04-29T21:31:16.311Z,9.55
2023-04-29T21:33:46.460Z,9.00
2023-04-29T21:36:13.752Z,7.72
2023-04-29T21:38:42.671Z,8.00
2023-04-29T21:41:20.794Z,8.23
2023-04-29T21:43:48.597Z,7.63
2023-04-29T21:46:15.847Z,9.80
2023-04-29T21:48:42.706Z,11.75
2023-04-29T21:51:09.417Z,6.03
2023-04-29T21:53:37.195Z,5.68
2023-04-29T21:56:05.869Z,6.93
2023-04-29T21:58:32.664Z,9.60
2023-04-29T22:01:03.074Z,6.82
2023-04-29T22:03:30.603Z,8.05
2023-04-29T22:05:57.918Z,6.22
2023-04-29T22:08:24.596Z,7.65
2023-04-29T22:10:51.333Z,7.78
2023-04-29T22:13:18.032Z,7.18
2023-04-29T22:15:44.913Z,10.00
2023-04-29T22:18:11.824Z,8.88
2023-04-29T22:20:38.438Z,7.65
2023-04-29T22:23:05.131Z,10.15
2023-04-29T22:25:32.013Z,7.90
2023-04-29T22:27:58.697Z,9.45
2023-04-29T22:30:25.374Z,9.05
2023-04-29T22:32:52.045Z,8.15
2023-04-29T22:35:18.674Z,7.60
2023-04-29T22:37:45.481Z,8.50
2023-04-29T22:40:12.830Z,9.52
2023-04-29T22:42:41.868Z,7.25
2023-04-29T22:45:10.376Z,11.85
2023-04-29T22:47:38.292Z,12.02
2023-04-29T22:50:05.471Z,7.30
2023-04-29T22:52:32.757Z,8.80
2023-04-29T22:54:59.894Z,9.18
2023-04-29T22:57:26.481Z,9.00
2023-04-29T22:59:55.225Z,12.00
2023-04-29T23:02:29.568Z,7.32
2023-04-29T23:04:56.946Z,12.05
2023-04-29T23:07:24.100Z,10.95
2023-04-29T23:09:51.411Z,8.52
2023-04-29T23:12:18.687Z,10.80
2023-04-29T23:14:45.629Z,8.27
2023-04-29T23:17:12.347Z,6.18
2023-04-29T23:19:39.010Z,9.55
2023-04-29T23:22:08.430Z,7.75
2023-04-29T23:24:35.557Z,8.88
2023-04-29T23:27:03.428Z,9.82
2023-04-29T23:29:36.655Z,12.77
2023-04-29T23:32:03.345Z,9.90
2023-04-29T23:34:29.945Z,11.38
2023-04-29T23:36:56.815Z,11.35
2023-04-29T23:39:23.421Z,11.13
2023-04-29T23:41:50.034Z,11.48
2023-04-29T23:44:16.669Z,12.27
2023-04-29T23:46:43.770Z,8.55
2023-04-29T23:49:10.570Z,10.45
2023-04-29T23:51:37.538Z,11.80
2023-04-29T23:54:04.174Z,11.45
2023-04-29T23:56:32.906Z,11.20
2023-04-29T23:58:59.716Z,8.77
